Time;durP1;ratioP1;P1;durP2;ratioP2;P2;SDS_P1;SDS_P2;PMS_P1;PMS_P2;Temp;Humidity;BMP_temperature;BMP_pressure;BME280_temperature;BME280_humidity;BME280_pressure;Samples;Min_cycle;Max_cycle;Signal;HPM_P1;HPM_P2
2022/08/09 00:00:56;;;;;;;;;;;17.90;99.90;;;;;;4838550;29;19952;-38
2022/08/09 00:03:22;;;;;;;;;;;17.90;99.90;;;;;;4858315;29;19917;-39
2022/08/09 00:05:47;;;;;;;;;;;17.90;99.90;;;;;;4847081;29;19912;-34
2022/08/09 00:08:13;;;;;;;;;;;17.90;99.90;;;;;;4849956;29;19919;-40
2022/08/09 00:10:38;;;;;;;;;;;17.90;99.90;;;;;;4850751;29;19955;-39
2022/08/09 00:13:05;;;;;;;;;;;17.80;99.90;;;;;;4845719;29;20416;-32
2022/08/09 00:15:31;;;;;;;;;;;17.80;99.90;;;;;;4838769;29;19923;-36
2022/08/09 00:17:56;;;;;;;;;;;17.70;99.90;;;;;;4843182;29;19913;-47
2022/08/09 00:20:22;;;;;;;;;;;17.70;99.90;;;;;;4857280;29;20383;-39
2022/08/09 00:22:48;;;;;;;;;;;17.70;99.90;;;;;;4843670;29;20426;-40
2022/08/09 00:25:13;;;;;;;;;;;17.70;99.90;;;;;;4840955;29;19912;-39
2022/08/09 00:27:39;;;;;;;;;;;17.60;99.90;;;;;;4838963;29;19919;-34
2022/08/09 00:30:05;;;;;;;;;;;17.50;99.90;;;;;;4847826;29;20383;-40
2022/08/09 00:32:30;;;;;;;;;;;17.50;99.90;;;;;;4855197;29;20411;-35
2022/08/09 00:34:56;;;;;;;;;;;17.50;99.90;;;;;;4838983;29;20051;-40
2022/08/09 00:37:21;;;;;;;;;;;17.40;99.90;;;;;;4854210;29;20124;-35
2022/08/09 00:39:47;;;;;;;;;;;17.40;99.90;;;;;;4846174;29;19912;-36
2022/08/09 00:42:12;;;;;;;;;;;17.40;99.90;;;;;;4854171;29;19922;-35
2022/08/09 00:44:39;;;;;;;;;;;17.40;99.90;;;;;;4842013;29;19924;-35
2022/08/09 00:47:04;;;;;;;;;;;17.30;99.90;;;;;;4839331;29;20351;-33
2022/08/09 00:49:30;;;;;;;;;;;17.30;99.90;;;;;;4849836;29;19918;-35
2022/08/09 00:51:56;;;;;;;;;;;17.30;99.90;;;;;;4840203;29;19919;-40
2022/08/09 00:54:22;;;;;;;;;;;17.40;99.90;;;;;;4847140;29;19909;-41
2022/08/09 00:56:47;;;;;;;;;;;17.40;99.90;;;;;;4852246;29;19919;-36
2022/08/09 00:59:13;;;;;;;;;;;17.40;99.90;;;;;;4845337;29;20314;-38
2022/08/09 01:01:39;;;;;;;;;;;17.40;99.90;;;;;;4852594;29;19985;-54
2022/08/09 01:04:11;;;;;;;;;;;17.40;99.90;;;;;;4846391;29;20365;-39
2022/08/09 01:06:46;;;;;;;;;;;17.40;99.90;;;;;;4840882;29;19913;-36
2022/08/09 01:09:11;;;;;;;;;;;17.30;99.90;;;;;;4857539;29;20369;-39
2022/08/09 01:11:46;;;;;;;;;;;17.30;99.90;;;;;;4844549;29;20088;-39
2022/08/09 01:14:16;;;;;;;;;;;17.20;99.90;;;;;;4846282;29;20365;-34
2022/08/09 01:16:44;;;;;;;;;;;17.20;99.90;;;;;;4844392;29;19956;-34
2022/08/09 01:19:22;;;;;;;;;;;17.10;99.90;;;;;;4842417;29;20349;-34
2022/08/09 01:21:56;;;;;;;;;;;17.10;99.90;;;;;;4845106;29;19990;-39
2022/08/09 01:24:30;;;;;;;;;;;17.10;99.90;;;;;;4842934;29;20353;-33
2022/08/09 01:27:05;;;;;;;;;;;17.00;99.90;;;;;;4839753;29;19913;-35
2022/08/09 01:29:32;;;;;;;;;;;17.00;99.90;;;;;;4845392;29;20354;-33
2022/08/09 01:31:59;;;;;;;;;;;17.10;99.90;;;;;;4829092;29;19912;-36
2022/08/09 01:34:27;;;;;;;;;;;17.00;99.90;;;;;;4850279;29;20357;-35
2022/08/09 01:36:54;;;;;;;;;;;17.00;99.90;;;;;;4853762;29;19919;-35
2022/08/09 01:39:21;;;;;;;;;;;17.00;99.90;;;;;;4850525;29;20377;-39
2022/08/09 01:41:47;;;;;;;;;;;17.00;99.90;;;;;;4840514;29;19912;-39
2022/08/09 01:44:14;;;;;;;;;;;17.00;99.90;;;;;;4851409;29;19926;-33
2022/08/09 01:46:41;;;;;;;;;;;16.90;99.90;;;;;;4846396;29;19923;-39
2022/08/09 01:49:11;;;;;;;;;;;16.90;99.90;;;;;;4841077;29;19940;-35
2022/08/09 01:51:38;;;;;;;;;;;16.90;99.90;;;;;;4850306;29;20289;-35
2022/08/09 01:54:05;;;;;;;;;;;16.90;99.90;;;;;;4848825;29;19960;-34
2022/08/09 01:56:32;;;;;;;;;;;16.80;99.90;;;;;;4841826;29;20340;-38
2022/08/09 01:59:00;;;;;;;;;;;16.80;99.90;;;;;;4824869;29;19943;-34
2022/08/09 02:01:26;;;;;;;;;;;16.70;99.90;;;;;;4822643;29;19912;-39
2022/08/09 02:03:52;;;;;;;;;;;16.70;99.90;;;;;;4843759;29;20385;-34
2022/08/09 02:07:07;;;;;;;;;;;16.70;99.90;;;;;;4845335;29;20358;-40
2022/08/09 02:09:04;;;;;;;;;;;16.60;99.90;;;;;;4843686;29;19913;-33
2022/08/09 02:11:30;;;;;;;;;;;16.60;99.90;;;;;;4860783;29;19916;-34
2022/08/09 02:13:55;;;;;;;;;;;16.50;99.90;;;;;;4847955;29;20043;-35
2022/08/09 02:16:22;;;;;;;;;;;16.50;99.90;;;;;;4839825;29;19920;-32
2022/08/09 02:18:47;;;;;;;;;;;16.50;99.90;;;;;;4840098;29;20007;-35
2022/08/09 02:21:15;;;;;;;;;;;16.40;99.90;;;;;;4843768;29;20045;-39
2022/08/09 02:23:49;;;;;;;;;;;16.40;99.90;;;;;;4845407;29;19920;-36
2022/08/09 02:26:15;;;;;;;;;;;16.40;99.90;;;;;;4840170;29;19913;-35
2022/08/09 02:28:46;;;;;;;;;;;16.30;99.90;;;;;;4845230;29;20349;-39
2022/08/09 02:31:19;;;;;;;;;;;16.30;99.90;;;;;;4849148;29;19912;-39
2022/08/09 02:33:46;;;;;;;;;;;16.30;99.90;;;;;;4855375;29;20381;-37
2022/08/09 02:36:14;;;;;;;;;;;16.30;99.90;;;;;;4833080;29;20015;-38
2022/08/09 02:38:43;;;;;;;;;;;16.30;99.90;;;;;;4831326;29;19916;-35
2022/08/09 02:41:09;;;;;;;;;;;16.40;99.90;;;;;;4840571;29;19921;-65
2022/08/09 02:46:23;;;;;;;;;;;16.40;99.90;;;;;;4841376;29;20007;-41
2022/08/09 02:48:50;;;;;;;;;;;16.40;99.90;;;;;;4841588;29;19927;-39
2022/08/09 02:51:17;;;;;;;;;;;16.40;99.90;;;;;;4844027;29;20369;-37
2022/08/09 02:53:48;;;;;;;;;;;16.30;99.90;;;;;;4843583;29;20326;-35
2022/08/09 02:56:14;;;;;;;;;;;16.30;99.90;;;;;;4843419;29;20374;-34
2022/08/09 02:58:41;;;;;;;;;;;16.20;99.90;;;;;;4849535;29;19919;-39
2022/08/09 03:01:07;;;;;;;;;;;16.30;99.90;;;;;;4844828;29;19916;-38
2022/08/09 03:03:33;;;;;;;;;;;16.30;99.90;;;;;;4841474;29;20407;-39
2022/08/09 03:06:00;;;;;;;;;;;16.20;99.90;;;;;;4840985;29;19916;-37
2022/08/09 03:08:26;;;;;;;;;;;16.20;99.90;;;;;;4825819;29;20390;-38
2022/08/09 03:10:53;;;;;;;;;;;16.20;99.90;;;;;;4858274;29;20389;-38
2022/08/09 03:13:19;;;;;;;;;;;16.20;99.90;;;;;;4840582;29;19920;-36
2022/08/09 03:15:45;;;;;;;;;;;16.20;99.90;;;;;;4846193;29;19912;-34
2022/08/09 03:18:12;;;;;;;;;;;16.20;99.90;;;;;;4841502;29;20362;-35
2022/08/09 03:20:38;;;;;;;;;;;16.20;99.90;;;;;;4843046;29;19912;-36
2022/08/09 03:23:04;;;;;;;;;;;16.30;99.90;;;;;;4849895;29;20408;-38
2022/08/09 03:25:30;;;;;;;;;;;16.30;99.90;;;;;;4846569;29;19912;-38
2022/08/09 03:27:56;;;;;;;;;;;16.20;99.90;;;;;;4841236;29;19926;-37
2022/08/09 03:30:22;;;;;;;;;;;16.30;99.90;;;;;;4847835;29;20377;-39
2022/08/09 03:32:47;;;;;;;;;;;16.30;99.90;;;;;;4844648;29;19912;-39
2022/08/09 03:35:13;;;;;;;;;;;16.30;99.90;;;;;;4847957;29;19977;-40
2022/08/09 03:37:39;;;;;;;;;;;16.30;99.90;;;;;;4847093;29;19926;-43
2022/08/09 03:40:05;;;;;;;;;;;16.30;99.90;;;;;;4843268;29;20008;-45
2022/08/09 03:42:31;;;;;;;;;;;16.20;99.90;;;;;;4846460;29;20015;-38
2022/08/09 03:44:56;;;;;;;;;;;16.20;99.90;;;;;;4853101;29;20003;-53
2022/08/09 03:47:22;;;;;;;;;;;16.20;99.90;;;;;;4841643;29;19913;-39
2022/08/09 03:49:48;;;;;;;;;;;16.20;99.90;;;;;;4840481;29;19912;-37
2022/08/09 03:52:15;;;;;;;;;;;16.10;99.90;;;;;;4824444;29;20006;-33
2022/08/09 03:54:42;;;;;;;;;;;16.10;99.90;;;;;;4844359;29;20369;-37
2022/08/09 03:57:10;;;;;;;;;;;16.00;99.90;;;;;;4842225;29;20673;-37
2022/08/09 03:59:35;;;;;;;;;;;16.00;99.90;;;;;;4845148;29;19913;-34
2022/08/09 04:02:01;;;;;;;;;;;15.90;99.90;;;;;;4841359;29;20441;-39
2022/08/09 04:04:27;;;;;;;;;;;15.90;99.90;;;;;;4841812;29;19941;-37
2022/08/09 04:06:52;;;;;;;;;;;15.90;99.90;;;;;;4840205;29;19920;-34
2022/08/09 04:09:18;;;;;;;;;;;15.90;99.90;;;;;;4837924;29;19924;-35
2022/08/09 04:11:53;;;;;;;;;;;16.00;99.90;;;;;;4843528;29;20273;-36
2022/08/09 04:14:20;;;;;;;;;;;15.90;99.90;;;;;;4838544;29;19921;-36
2022/08/09 04:16:45;;;;;;;;;;;15.90;99.90;;;;;;4845215;29;20442;-38
2022/08/09 04:19:12;;;;;;;;;;;15.80;99.90;;;;;;4847657;29;19912;-37
2022/08/09 04:21:38;;;;;;;;;;;15.80;99.90;;;;;;4825474;29;19935;-32
2022/08/09 04:24:04;;;;;;;;;;;15.80;99.90;;;;;;4839960;29;19923;-32
2022/08/09 04:26:29;;;;;;;;;;;15.80;99.90;;;;;;4838082;29;19912;-35
2022/08/09 04:31:39;;;;;;;;;;;15.80;99.90;;;;;;4845994;29;19962;-37
2022/08/09 04:34:04;;;;;;;;;;;15.70;99.90;;;;;;4842406;29;19955;-33
2022/08/09 04:36:31;;;;;;;;;;;15.70;99.90;;;;;;4841833;29;20433;-36
2022/08/09 04:39:03;;;;;;;;;;;15.70;99.90;;;;;;4841971;29;20366;-33
2022/08/09 04:41:29;;;;;;;;;;;15.70;99.90;;;;;;4843371;29;19916;-32
2022/08/09 04:43:54;;;;;;;;;;;15.70;99.90;;;;;;4844639;29;20366;-35
2022/08/09 04:46:20;;;;;;;;;;;15.70;99.90;;;;;;4843007;29;19920;-62
2022/08/09 04:48:46;;;;;;;;;;;15.70;99.90;;;;;;4850810;29;20368;-38
2022/08/09 04:51:11;;;;;;;;;;;15.70;99.90;;;;;;4849072;29;20350;-35
2022/08/09 04:53:38;;;;;;;;;;;15.70;99.90;;;;;;4842427;29;20438;-38
2022/08/09 04:56:03;;;;;;;;;;;15.70;99.90;;;;;;4847214;29;20364;-38
2022/08/09 04:58:29;;;;;;;;;;;15.70;99.90;;;;;;4848781;29;19919;-35
2022/08/09 05:00:55;;;;;;;;;;;15.70;99.90;;;;;;4841712;29;20350;-37
2022/08/09 05:03:21;;;;;;;;;;;15.80;99.90;;;;;;4846525;29;19917;-35
2022/08/09 05:05:47;;;;;;;;;;;15.80;99.90;;;;;;4845775;29;19912;-41
2022/08/09 05:08:12;;;;;;;;;;;15.90;99.90;;;;;;4845909;29;20380;-39
2022/08/09 05:10:38;;;;;;;;;;;15.90;99.90;;;;;;4847768;29;20592;-33
2022/08/09 05:13:03;;;;;;;;;;;15.90;99.90;;;;;;4855630;29;19976;-36
2022/08/09 05:15:29;;;;;;;;;;;16.00;99.90;;;;;;4847742;29;19918;-36
2022/08/09 05:17:54;;;;;;;;;;;16.00;99.90;;;;;;4842824;29;19920;-35
2022/08/09 05:20:20;;;;;;;;;;;16.00;99.90;;;;;;4843280;29;20015;-34
2022/08/09 05:22:47;;;;;;;;;;;16.00;99.90;;;;;;4849155;29;19916;-38
2022/08/09 05:25:13;;;;;;;;;;;16.10;99.90;;;;;;4849192;29;19920;-36
2022/08/09 05:27:39;;;;;;;;;;;16.00;99.90;;;;;;4844985;29;19923;-38
2022/08/09 05:30:04;;;;;;;;;;;16.00;99.90;;;;;;4849066;29;19912;-39
2022/08/09 05:32:30;;;;;;;;;;;16.00;99.90;;;;;;4851201;29;20404;-37
2022/08/09 05:34:55;;;;;;;;;;;16.10;99.90;;;;;;4850609;29;19955;-39
2022/08/09 05:37:21;;;;;;;;;;;16.10;99.90;;;;;;4845309;29;20579;-38
2022/08/09 05:39:46;;;;;;;;;;;16.10;99.90;;;;;;4865242;29;20262;-38
2022/08/09 05:42:12;;;;;;;;;;;16.10;99.90;;;;;;4848755;29;19955;-37
2022/08/09 05:44:37;;;;;;;;;;;16.10;99.90;;;;;;4841842;29;20394;-38
2022/08/09 05:47:03;;;;;;;;;;;16.20;99.90;;;;;;4845581;29;19912;-36
2022/08/09 05:49:29;;;;;;;;;;;16.20;99.90;;;;;;4847636;29;19955;-38
2022/08/09 05:51:54;;;;;;;;;;;16.20;99.90;;;;;;4847402;29;19917;-38
2022/08/09 05:54:19;;;;;;;;;;;16.30;99.90;;;;;;4854902;29;19975;-35
2022/08/09 05:56:45;;;;;;;;;;;16.40;99.90;;;;;;4848124;29;20154;-40
2022/08/09 05:59:11;;;;;;;;;;;16.50;99.90;;;;;;4842563;29;19912;-38
2022/08/09 06:01:36;;;;;;;;;;;16.60;99.90;;;;;;4851523;29;19959;-37
2022/08/09 06:04:02;;;;;;;;;;;16.60;99.90;;;;;;4851564;29;19987;-38
2022/08/09 06:06:27;;;;;;;;;;;16.70;99.90;;;;;;4844001;29;19916;-41
2022/08/09 06:08:53;;;;;;;;;;;16.70;99.90;;;;;;4846969;29;19923;-39
2022/08/09 06:11:19;;;;;;;;;;;16.80;99.90;;;;;;4861562;29;20329;-39
2022/08/09 06:13:44;;;;;;;;;;;16.80;99.90;;;;;;4846987;29;20038;-39
2022/08/09 06:16:10;;;;;;;;;;;17.00;99.90;;;;;;4845189;29;19923;-34
2022/08/09 06:18:36;;;;;;;;;;;17.10;99.90;;;;;;4835235;29;19923;-37
2022/08/09 06:21:02;;;;;;;;;;;17.20;99.90;;;;;;4842305;29;19913;-38
2022/08/09 06:23:28;;;;;;;;;;;17.30;99.90;;;;;;4850671;29;19984;-38
2022/08/09 06:25:54;;;;;;;;;;;17.40;99.90;;;;;;4839301;29;19916;-54
2022/08/09 06:28:19;;;;;;;;;;;17.50;99.90;;;;;;4826822;29;20392;-41
2022/08/09 06:30:45;;;;;;;;;;;17.70;99.90;;;;;;4841146;29;19963;-38
2022/08/09 06:33:10;;;;;;;;;;;17.80;99.90;;;;;;4847991;29;20433;-35
2022/08/09 06:35:36;;;;;;;;;;;17.80;99.90;;;;;;4844724;29;20015;-33
2022/08/09 06:38:01;;;;;;;;;;;17.90;99.90;;;;;;4841811;29;19935;-33
2022/08/09 06:40:27;;;;;;;;;;;18.00;99.90;;;;;;4843354;29;20397;-35
2022/08/09 06:42:53;;;;;;;;;;;18.10;99.90;;;;;;4841630;29;19985;-33
2022/08/09 06:45:19;;;;;;;;;;;18.30;99.90;;;;;;4838870;29;19955;-32
2022/08/09 06:47:44;;;;;;;;;;;18.40;99.90;;;;;;4844222;29;19940;-31
2022/08/09 06:50:10;;;;;;;;;;;18.60;99.90;;;;;;4842019;29;19913;-42
2022/08/09 06:52:44;;;;;;;;;;;18.70;99.90;;;;;;4844463;29;19944;-37
2022/08/09 06:55:19;;;;;;;;;;;18.70;99.90;;;;;;4839345;29;19967;-36
2022/08/09 06:57:45;;;;;;;;;;;18.60;99.90;;;;;;4842861;29;19919;-39
2022/08/09 07:00:11;;;;;;;;;;;18.80;99.90;;;;;;4841628;29;19913;-33
2022/08/09 07:02:36;;;;;;;;;;;18.90;99.90;;;;;;4839328;29;20366;-37
2022/08/09 07:05:02;;;;;;;;;;;19.00;99.90;;;;;;4848438;29;19970;-36
2022/08/09 07:07:27;;;;;;;;;;;19.00;99.90;;;;;;4840098;29;19979;-41
2022/08/09 07:09:53;;;;;;;;;;;19.20;99.90;;;;;;4816836;29;19920;-38
2022/08/09 07:12:20;;;;;;;;;;;19.30;99.90;;;;;;4838862;29;19950;-39
2022/08/09 07:14:46;;;;;;;;;;;19.50;99.90;;;;;;4838321;29;20390;-35
2022/08/09 07:17:13;;;;;;;;;;;19.60;99.90;;;;;;4841027;29;19955;-40
2022/08/09 07:19:38;;;;;;;;;;;19.90;99.90;;;;;;4842924;29;20003;-40
2022/08/09 07:22:04;;;;;;;;;;;20.00;99.90;;;;;;4847432;29;20437;-44
2022/08/09 07:24:29;;;;;;;;;;;20.20;99.90;;;;;;4853154;29;20336;-38
2022/08/09 07:26:55;;;;;;;;;;;20.40;99.90;;;;;;4849182;29;20279;-37
2022/08/09 07:29:21;;;;;;;;;;;20.60;99.90;;;;;;4843929;29;19968;-39
2022/08/09 07:31:46;;;;;;;;;;;20.60;99.90;;;;;;4838099;29;19912;-40
2022/08/09 07:34:12;;;;;;;;;;;20.80;99.90;;;;;;4846614;29;19920;-40
2022/08/09 07:36:39;;;;;;;;;;;20.80;99.90;;;;;;4836702;29;20409;-39
2022/08/09 07:39:05;;;;;;;;;;;20.80;99.90;;;;;;4839066;29;20313;-38
2022/08/09 07:41:30;;;;;;;;;;;20.70;99.90;;;;;;4839798;29;19913;-38
2022/08/09 07:43:56;;;;;;;;;;;20.70;99.90;;;;;;4845946;29;19920;-35
2022/08/09 07:46:21;;;;;;;;;;;20.70;99.90;;;;;;4847583;29;19923;-36
2022/08/09 07:48:47;;;;;;;;;;;20.80;99.90;;;;;;4844186;29;19969;-40
2022/08/09 07:51:13;;;;;;;;;;;20.90;99.90;;;;;;4846076;29;19919;-33
2022/08/09 07:53:38;;;;;;;;;;;20.90;99.90;;;;;;4842423;29;20022;-32
2022/08/09 07:56:04;;;;;;;;;;;21.10;99.90;;;;;;4844635;29;19918;-38
2022/08/09 07:58:29;;;;;;;;;;;21.10;99.90;;;;;;4846252;29;20388;-41
2022/08/09 08:00:55;;;;;;;;;;;21.20;99.90;;;;;;4840036;29;20358;-35
2022/08/09 08:03:20;;;;;;;;;;;21.30;99.90;;;;;;4854628;29;19916;-33
2022/08/09 08:05:46;;;;;;;;;;;21.40;99.90;;;;;;4819799;29;20226;-33
2022/08/09 08:08:12;;;;;;;;;;;21.50;99.90;;;;;;4838615;29;19955;-34
2022/08/09 08:10:37;;;;;;;;;;;21.60;99.90;;;;;;4839570;29;19944;-43
2022/08/09 08:13:03;;;;;;;;;;;21.70;99.90;;;;;;4835193;29;20429;-38
2022/08/09 08:15:28;;;;;;;;;;;21.70;99.90;;;;;;4846724;29;19912;-34
2022/08/09 08:17:54;;;;;;;;;;;21.80;99.90;;;;;;4838708;29;19928;-39
2022/08/09 08:20:20;;;;;;;;;;;21.80;99.90;;;;;;4837945;29;19970;-37
2022/08/09 08:22:46;;;;;;;;;;;21.80;99.90;;;;;;4834911;29;19930;-37
2022/08/09 08:25:12;;;;;;;;;;;21.80;99.90;;;;;;4835781;29;20281;-38
2022/08/09 08:27:37;;;;;;;;;;;22.00;99.90;;;;;;4843826;29;20436;-36
2022/08/09 08:30:03;;;;;;;;;;;22.20;99.90;;;;;;4845958;29;19923;-38
2022/08/09 08:32:29;;;;;;;;;;;22.60;99.90;;;;;;4844603;29;20413;-37
2022/08/09 08:34:58;;;;;;;;;;;22.70;99.90;;;;;;4839992;29;19943;-37
2022/08/09 08:37:24;;;;;;;;;;;22.70;99.90;;;;;;4843216;29;19919;-36
2022/08/09 08:39:49;;;;;;;;;;;22.80;99.90;;;;;;4846595;29;19912;-42
2022/08/09 08:42:15;;;;;;;;;;;22.70;99.90;;;;;;4847696;29;20235;-36
2022/08/09 08:44:41;;;;;;;;;;;22.70;99.90;;;;;;4841486;29;20265;-36
2022/08/09 08:47:08;;;;;;;;;;;23.00;99.90;;;;;;4839530;29;19912;-38
2022/08/09 08:49:36;;;;;;;;;;;23.20;99.90;;;;;;4847078;29;20370;-40
2022/08/09 08:52:01;;;;;;;;;;;23.50;99.90;;;;;;4837838;29;19959;-40
2022/08/09 08:54:27;;;;;;;;;;;23.80;99.90;;;;;;4847640;29;20369;-38
2022/08/09 08:56:53;;;;;;;;;;;24.10;99.90;;;;;;4843908;29;20392;-37
2022/08/09 08:59:19;;;;;;;;;;;24.20;99.90;;;;;;4837681;29;20019;-34
2022/08/09 09:01:45;;;;;;;;;;;24.40;99.90;;;;;;4846049;29;20027;-39
2022/08/09 09:04:11;;;;;;;;;;;24.50;99.90;;;;;;4855806;29;19916;-35
2022/08/09 09:06:40;;;;;;;;;;;24.60;99.90;;;;;;4849992;29;19996;-34
2022/08/09 09:09:06;;;;;;;;;;;24.50;99.90;;;;;;4837830;29;19912;-39
2022/08/09 09:11:35;;;;;;;;;;;24.70;99.90;;;;;;4837441;29;19919;-41
2022/08/09 09:14:08;;;;;;;;;;;24.80;99.30;;;;;;4848662;29;19916;-41
2022/08/09 09:16:34;;;;;;;;;;;24.70;99.40;;;;;;4838023;29;20386;-34
2022/08/09 09:19:06;;;;;;;;;;;24.90;98.80;;;;;;4849173;29;19967;-36
2022/08/09 09:21:32;;;;;;;;;;;25.10;98.40;;;;;;4846622;29;19913;-36
2022/08/09 09:24:02;;;;;;;;;;;25.20;97.90;;;;;;4853431;29;20273;-35
2022/08/09 09:26:27;;;;;;;;;;;25.60;98.00;;;;;;4845143;29;19969;-37
2022/08/09 09:28:55;;;;;;;;;;;25.80;97.20;;;;;;4844788;29;19948;-38
2022/08/09 09:31:23;;;;;;;;;;;25.70;96.40;;;;;;4826164;29;19916;-39
2022/08/09 09:33:48;;;;;;;;;;;25.90;96.10;;;;;;4844527;29;19923;-38
2022/08/09 09:36:15;;;;;;;;;;;25.90;96.60;;;;;;4850517;29;20296;-38
2022/08/09 09:38:56;;;;;;;;;;;26.10;96.20;;;;;;4850416;29;19966;-38
2022/08/09 09:41:22;;;;;;;;;;;26.40;95.70;;;;;;4843877;29;19963;-38
2022/08/09 09:43:48;;;;;;;;;;;27.20;94.30;;;;;;4844800;29;19955;-37
2022/08/09 09:46:13;;;;;;;;;;;27.20;94.30;;;;;;4843248;29;19935;-39
2022/08/09 09:48:53;;;;;;;;;;;26.90;94.40;;;;;;4841376;29;19913;-36
2022/08/09 09:51:19;;;;;;;;;;;26.50;95.10;;;;;;4852423;29;19999;-37
2022/08/09 09:53:45;;;;;;;;;;;27.10;94.70;;;;;;4840630;29;20440;-34
2022/08/09 09:56:29;;;;;;;;;;;27.00;94.20;;;;;;4845440;29;19920;-38
2022/08/09 09:58:54;;;;;;;;;;;27.30;93.60;;;;;;4844399;29;19912;-39
2022/08/09 10:01:21;;;;;;;;;;;26.80;94.20;;;;;;4847733;29;19972;-37
2022/08/09 10:03:48;;;;;;;;;;;26.80;94.30;;;;;;4853613;29;19945;-35
2022/08/09 10:06:13;;;;;;;;;;;26.50;94.70;;;;;;4852321;29;20368;-39
2022/08/09 10:08:43;;;;;;;;;;;26.40;95.10;;;;;;4855441;29;19932;-37
2022/08/09 10:11:15;;;;;;;;;;;26.40;94.90;;;;;;4840770;29;19916;-36
2022/08/09 10:13:41;;;;;;;;;;;25.80;95.00;;;;;;4851706;29;19919;-37
2022/08/09 10:16:07;;;;;;;;;;;25.80;95.30;;;;;;4848931;29;19912;-46
2022/08/09 10:18:32;;;;;;;;;;;25.90;95.30;;;;;;4849822;29;19912;-36
2022/08/09 10:21:05;;;;;;;;;;;25.70;95.10;;;;;;4852023;29;20462;-41
2022/08/09 10:23:30;;;;;;;;;;;26.20;94.60;;;;;;4848205;29;19916;-40
2022/08/09 10:25:56;;;;;;;;;;;26.40;93.80;;;;;;4838980;29;19912;-40
2022/08/09 10:28:24;;;;;;;;;;;26.50;94.10;;;;;;4844128;29;19912;-39
2022/08/09 10:30:50;;;;;;;;;;;26.80;93.80;;;;;;4847453;29;19940;-40
2022/08/09 10:33:16;;;;;;;;;;;27.00;93.60;;;;;;4829318;29;20390;-37
2022/08/09 10:35:41;;;;;;;;;;;27.30;93.80;;;;;;4849978;29;20357;-36
2022/08/09 10:38:07;;;;;;;;;;;27.50;93.50;;;;;;4846223;29;19951;-38
2022/08/09 10:40:34;;;;;;;;;;;27.50;93.30;;;;;;4844162;29;19995;-38
2022/08/09 10:42:59;;;;;;;;;;;27.50;92.90;;;;;;4852638;29;19954;-41
2022/08/09 10:45:27;;;;;;;;;;;27.30;92.70;;;;;;4839356;29;19959;-38
2022/08/09 10:48:03;;;;;;;;;;;26.90;92.80;;;;;;4841566;29;19923;-39
2022/08/09 10:53:31;;;;;;;;;;;26.60;92.90;;;;;;4840022;29;19923;-39
2022/08/09 10:56:16;;;;;;;;;;;26.50;93.40;;;;;;4844043;29;19913;-37
2022/08/09 10:58:42;;;;;;;;;;;26.30;93.10;;;;;;4844209;29;19919;-37
2022/08/09 11:01:26;;;;;;;;;;;26.10;93.80;;;;;;4842823;29;20377;-37
2022/08/09 11:04:07;;;;;;;;;;;26.20;93.40;;;;;;4828437;29;19917;-36
2022/08/09 11:06:33;;;;;;;;;;;25.90;93.70;;;;;;4850936;29;19920;-45
2022/08/09 11:08:59;;;;;;;;;;;26.00;94.00;;;;;;4849237;29;19912;-37
2022/08/09 11:11:24;;;;;;;;;;;26.20;94.10;;;;;;4849862;29;19912;-35
2022/08/09 11:14:34;;;;;;;;;;;26.20;94.20;;;;;;4846822;29;19918;-38
2022/08/09 11:17:19;;;;;;;;;;;26.30;94.10;;;;;;4831791;29;19923;-45
2022/08/09 11:19:57;;;;;;;;;;;26.30;93.60;;;;;;4819731;29;19914;-38
2022/08/09 11:22:41;;;;;;;;;;;26.20;93.50;;;;;;4844312;29;20313;-36
2022/08/09 11:25:07;;;;;;;;;;;26.10;94.10;;;;;;4839451;29;19908;-41
2022/08/09 11:27:35;;;;;;;;;;;26.10;94.10;;;;;;4840462;29;19912;-35
2022/08/09 11:30:01;;;;;;;;;;;26.00;94.50;;;;;;4838524;29;20285;-37
2022/08/09 11:32:38;;;;;;;;;;;26.00;94.40;;;;;;4844646;29;19916;-35
2022/08/09 11:35:09;;;;;;;;;;;26.00;94.20;;;;;;4844160;29;20374;-40
2022/08/09 11:37:36;;;;;;;;;;;26.10;94.50;;;;;;4847137;29;20366;-41
2022/08/09 11:40:03;;;;;;;;;;;26.20;93.70;;;;;;4843673;29;20014;-47
2022/08/09 11:42:40;;;;;;;;;;;26.30;93.60;;;;;;4838158;29;19915;-39
2022/08/09 11:45:17;;;;;;;;;;;26.50;94.00;;;;;;4837919;29;19995;-41
2022/08/09 11:47:43;;;;;;;;;;;26.60;93.20;;;;;;4838816;29;20358;-35
2022/08/09 11:50:09;;;;;;;;;;;26.60;93.60;;;;;;4848211;29;19913;-39
2022/08/09 11:52:54;;;;;;;;;;;26.80;93.20;;;;;;4838852;29;19908;-38
2022/08/09 11:55:32;;;;;;;;;;;27.00;93.10;;;;;;4845781;29;20831;-40
2022/08/09 11:57:59;;;;;;;;;;;26.60;93.10;;;;;;4847430;29;20405;-37
2022/08/09 12:00:25;;;;;;;;;;;26.50;93.50;;;;;;4845880;29;19915;-41
2022/08/09 12:02:51;;;;;;;;;;;26.30;93.30;;;;;;4839003;29;20584;-35
2022/08/09 12:05:16;;;;;;;;;;;26.10;93.30;;;;;;4838183;29;20166;-38
2022/08/09 12:07:42;;;;;;;;;;;26.10;93.20;;;;;;4833014;29;19955;-38
2022/08/09 12:10:09;;;;;;;;;;;26.20;93.50;;;;;;4855050;29;19916;-40
2022/08/09 12:12:45;;;;;;;;;;;26.30;93.40;;;;;;4849376;29;20354;-45
2022/08/09 12:15:37;;;;;;;;;;;26.70;93.30;;;;;;4839795;29;19955;-44
2022/08/09 12:18:03;;;;;;;;;;;26.80;93.40;;;;;;4837353;29;20487;-35
2022/08/09 12:20:33;;;;;;;;;;;26.70;92.90;;;;;;4850724;29;20190;-41
2022/08/09 12:23:00;;;;;;;;;;;26.70;93.20;;;;;;4821294;29;20444;-42
2022/08/09 12:25:26;;;;;;;;;;;26.70;93.20;;;;;;4843173;29;20361;-37
2022/08/09 12:28:10;;;;;;;;;;;26.80;92.80;;;;;;4847645;29;19999;-36
2022/08/09 12:30:36;;;;;;;;;;;27.00;92.80;;;;;;4842533;29;19913;-38
2022/08/09 12:33:02;;;;;;;;;;;27.10;93.40;;;;;;4843816;29;19965;-36
2022/08/09 12:35:27;;;;;;;;;;;27.10;93.60;;;;;;4838126;29;19950;-33
2022/08/09 12:37:53;;;;;;;;;;;26.90;93.10;;;;;;4846726;29;19959;-36
2022/08/09 12:40:20;;;;;;;;;;;26.70;93.50;;;;;;4839904;29;19931;-39
2022/08/09 12:42:46;;;;;;;;;;;26.60;93.80;;;;;;4822074;29;19986;-38
2022/08/09 12:45:12;;;;;;;;;;;26.50;93.70;;;;;;4838132;29;19920;-39
2022/08/09 12:47:38;;;;;;;;;;;26.50;93.70;;;;;;4843957;29;19959;-35
2022/08/09 12:50:16;;;;;;;;;;;26.70;93.80;;;;;;4838514;29;19909;-40
2022/08/09 12:52:42;;;;;;;;;;;26.70;93.50;;;;;;4838927;29;20007;-40
2022/08/09 12:55:11;;;;;;;;;;;26.90;93.60;;;;;;4843245;29;19966;-43
2022/08/09 12:57:55;;;;;;;;;;;26.90;93.40;;;;;;4854222;29;20297;-35
2022/08/09 13:00:23;;;;;;;;;;;27.10;93.50;;;;;;4838999;29;20436;-39
2022/08/09 13:02:59;;;;;;;;;;;27.30;93.50;;;;;;4845359;29;20405;-36
2022/08/09 13:05:27;;;;;;;;;;;27.40;93.20;;;;;;4832362;29;20370;-37
2022/08/09 13:08:14;;;;;;;;;;;27.30;93.20;;;;;;4841992;29;20333;-35
2022/08/09 13:10:47;;;;;;;;;;;27.10;93.30;;;;;;4848415;29;19913;-37
2022/08/09 13:13:13;;;;;;;;;;;27.10;93.50;;;;;;4850895;29;19913;-36
2022/08/09 13:15:51;;;;;;;;;;;27.30;93.20;;;;;;4845685;29;20257;-38
2022/08/09 13:18:17;;;;;;;;;;;27.40;93.20;;;;;;4854845;29;19915;-41
2022/08/09 13:20:43;;;;;;;;;;;27.60;93.10;;;;;;4852565;29;20487;-36
2022/08/09 13:23:08;;;;;;;;;;;27.60;93.20;;;;;;4832714;29;19916;-41
2022/08/09 13:25:42;;;;;;;;;;;27.50;93.00;;;;;;4857588;29;20337;-38
2022/08/09 13:28:09;;;;;;;;;;;27.60;93.60;;;;;;4843813;29;19917;-40
2022/08/09 13:30:35;;;;;;;;;;;27.50;93.00;;;;;;4841391;29;20444;-41
2022/08/09 13:33:00;;;;;;;;;;;27.40;93.00;;;;;;4847154;29;20011;-39
2022/08/09 13:35:26;;;;;;;;;;;27.30;93.40;;;;;;4840806;29;20289;-39
2022/08/09 13:37:54;;;;;;;;;;;27.50;93.10;;;;;;4855719;29;19912;-39
2022/08/09 13:40:20;;;;;;;;;;;27.80;93.40;;;;;;4850343;29;20358;-41
2022/08/09 13:42:45;;;;;;;;;;;27.70;93.10;;;;;;4842389;29;19917;-40
2022/08/09 13:45:12;;;;;;;;;;;27.80;93.20;;;;;;4846098;29;20014;-37
2022/08/09 13:47:38;;;;;;;;;;;28.00;93.10;;;;;;4855452;29;20003;-42
2022/08/09 13:50:05;;;;;;;;;;;28.10;93.40;;;;;;4841591;29;20447;-39
2022/08/09 13:52:32;;;;;;;;;;;28.10;92.80;;;;;;4841320;29;20015;-35
2022/08/09 13:54:58;;;;;;;;;;;27.90;92.90;;;;;;4840526;29;19942;-37
2022/08/09 13:57:23;;;;;;;;;;;27.70;93.50;;;;;;4841343;29;19999;-34
2022/08/09 13:59:49;;;;;;;;;;;27.50;93.40;;;;;;4840771;29;19913;-38
2022/08/09 14:02:14;;;;;;;;;;;27.30;93.90;;;;;;4842963;29;19912;-36
2022/08/09 14:04:40;;;;;;;;;;;27.30;94.20;;;;;;4847920;29;20358;-39
2022/08/09 14:07:05;;;;;;;;;;;27.20;94.30;;;;;;4840069;29;19919;-41
2022/08/09 14:09:31;;;;;;;;;;;27.20;94.10;;;;;;4852163;29;19919;-42
2022/08/09 14:11:57;;;;;;;;;;;27.20;94.50;;;;;;4847151;29;19916;-38
2022/08/09 14:14:23;;;;;;;;;;;27.20;94.60;;;;;;4850755;29;19913;-36
2022/08/09 14:16:49;;;;;;;;;;;27.20;94.70;;;;;;4840622;29;19928;-44
2022/08/09 14:19:15;;;;;;;;;;;26.80;95.40;;;;;;4851184;29;19931;-34
2022/08/09 14:21:41;;;;;;;;;;;26.70;95.80;;;;;;4840585;29;19912;-42
2022/08/09 14:24:06;;;;;;;;;;;27.00;95.90;;;;;;4841504;29;19920;-41
2022/08/09 14:26:32;;;;;;;;;;;27.30;95.70;;;;;;4843038;29;19913;-40